Time;durP1;ratioP1;P1;durP2;ratioP2;P2;SDS_P1;SDS_P2;PMS_P1;PMS_P2;Temp;Humidity;BMP_temperature;BMP_pressure;BME280_temperature;BME280_humidity;BME280_pressure;Samples;Min_cycle;Max_cycle;Signal;HPM_P1;HPM_P2
2024/01/01 00:01:36;;;;;;;0.80;0.80;;;-3.20;99.90;;;;;;5068536;28;20205;-73
2024/01/01 00:04:01;;;;;;;0.88;0.88;;;-3.20;99.90;;;;;;5067499;28;20193;-72
2024/01/01 00:06:27;;;;;;;0.85;0.85;;;-3.20;99.90;;;;;;5067020;28;20710;-72
2024/01/01 00:08:53;;;;;;;0.80;0.80;;;-3.30;99.90;;;;;;5052055;28;20213;-71
2024/01/01 00:11:18;;;;;;;0.63;0.63;;;-3.20;99.90;;;;;;5048619;28;20276;-71
2024/01/01 00:13:44;;;;;;;0.80;0.80;;;-3.30;99.90;;;;;;5048509;28;20201;-71
2024/01/01 00:16:10;;;;;;;0.70;0.70;;;-3.30;99.90;;;;;;5048560;28;20197;-71
2024/01/01 00:18:35;;;;;;;0.70;0.70;;;-3.20;99.90;;;;;;5048211;28;20292;-71
2024/01/01 00:21:02;;;;;;;0.80;0.80;;;-3.20;99.90;;;;;;5048186;28;20300;-71
2024/01/01 00:23:27;;;;;;;0.80;0.80;;;-3.30;99.90;;;;;;5058499;28;20570;-71
2024/01/01 00:25:53;;;;;;;0.80;0.80;;;-3.30;99.90;;;;;;5068268;28;20201;-71
2024/01/01 00:28:19;;;;;;;0.95;0.95;;;-3.30;99.90;;;;;;5068310;28;20234;-71
2024/01/01 00:30:45;;;;;;;0.80;0.80;;;-3.30;99.90;;;;;;5068462;28;20212;-71
2024/01/01 00:33:10;;;;;;;0.80;0.80;;;-3.30;99.90;;;;;;5068219;28;20280;-71
2024/01/01 00:35:36;;;;;;;0.80;0.80;;;-3.30;99.90;;;;;;5083604;28;20296;-71
2024/01/01 00:38:02;;;;;;;0.80;0.80;;;-3.30;99.90;;;;;;5068175;28;20196;-71
2024/01/01 00:40:28;;;;;;;0.77;0.77;;;-3.30;99.90;;;;;;5068676;28;20606;-71
2024/01/01 00:42:54;;;;;;;0.90;0.90;;;-3.30;99.90;;;;;;5052683;28;20205;-71
2024/01/01 00:45:19;;;;;;;0.80;0.80;;;-3.30;99.90;;;;;;5047810;28;20725;-71
2024/01/01 00:47:45;;;;;;;0.68;0.68;;;-3.30;99.90;;;;;;5048370;28;20238;-71
2024/01/01 00:50:11;;;;;;;0.80;0.80;;;-3.30;99.90;;;;;;5048381;28;20272;-70
2024/01/01 00:52:37;;;;;;;0.73;0.73;;;-3.30;99.90;;;;;;5047927;28;20288;-70
2024/01/01 00:55:03;;;;;;;0.80;0.80;;;-3.30;99.90;;;;;;5050165;28;20197;-70
2024/01/01 00:57:29;;;;;;;0.73;0.73;;;-3.30;99.90;;;;;;5064683;28;20193;-70
2024/01/01 00:59:54;;;;;;;0.90;0.90;;;-3.30;99.90;;;;;;5071751;28;20212;-70
2024/01/01 01:02:20;;;;;;;0.90;0.90;;;-3.30;99.90;;;;;;5072033;28;20193;-70
2024/01/01 01:04:47;;;;;;;0.90;0.90;;;-3.30;99.90;;;;;;5072206;28;20198;-70
2024/01/01 01:07:13;;;;;;;0.70;0.70;;;-3.40;99.90;;;;;;5072067;28;20224;-71
2024/01/01 01:09:39;;;;;;;0.88;0.88;;;-3.30;99.90;;;;;;5071918;28;20273;-70
2024/01/01 01:12:05;;;;;;;0.85;0.85;;;-3.30;99.90;;;;;;5071940;28;20272;-71
2024/01/01 01:14:30;;;;;;;0.80;0.80;;;-3.30;99.90;;;;;;5071742;28;20185;-71
2024/01/01 01:16:56;;;;;;;0.90;0.90;;;-3.40;99.90;;;;;;5072143;28;20740;-71
2024/01/01 01:19:22;;;;;;;0.80;0.80;;;-3.40;99.90;;;;;;5071235;28;20205;-71
2024/01/01 01:21:47;;;;;;;0.88;0.88;;;-3.40;99.90;;;;;;5072308;28;20271;-71
2024/01/01 01:24:18;;;;;;;0.85;0.85;;;-3.30;99.90;;;;;;5071706;28;20571;-73
2024/01/01 01:26:43;;;;;;;0.75;0.75;;;-3.30;99.90;;;;;;5072084;28;20238;-71
2024/01/01 01:29:09;;;;;;;0.70;0.70;;;-3.30;99.90;;;;;;5071725;28;20590;-71
2024/01/01 01:31:35;;;;;;;0.73;0.73;;;-3.30;99.90;;;;;;5072173;28;20553;-71
2024/01/01 01:34:01;;;;;;;0.93;0.93;;;-3.30;99.90;;;;;;5071562;28;20193;-71
2024/01/01 01:36:27;;;;;;;0.80;0.80;;;-3.30;99.90;;;;;;5071925;28;20710;-71
2024/01/01 01:38:52;;;;;;;0.90;0.90;;;-3.30;99.90;;;;;;5071428;28;20189;-71
2024/01/01 01:41:18;;;;;;;0.80;0.80;;;-3.30;99.90;;;;;;5071590;28;20193;-71
2024/01/01 01:43:44;;;;;;;0.70;0.70;;;-3.30;99.90;;;;;;5071701;28;20193;-71
2024/01/01 01:46:11;;;;;;;1.13;1.02;;;-3.40;99.90;;;;;;5071136;28;20659;-70
2024/01/01 01:48:37;;;;;;;0.80;0.80;;;-3.40;99.90;;;;;;5071122;28;20185;-70
2024/01/01 01:51:02;;;;;;;0.80;0.80;;;-3.40;99.90;;;;;;5086973;28;20603;-70
2024/01/01 01:53:30;;;;;;;0.80;0.80;;;-3.40;99.90;;;;;;5071254;28;20246;-70
2024/01/01 01:55:59;;;;;;;0.93;0.93;;;-3.40;99.90;;;;;;5070944;28;20252;-73
2024/01/01 01:58:25;;;;;;;0.80;0.80;;;-3.40;99.90;;;;;;5050975;28;20704;-70
2024/01/01 02:00:51;;;;;;;1.00;1.00;;;-3.40;99.90;;;;;;5051078;28;20292;-69
2024/01/01 02:03:17;;;;;;;0.88;0.88;;;-3.40;99.90;;;;;;5051060;28;20202;-70
2024/01/01 02:05:43;;;;;;;0.80;0.80;;;-3.40;99.90;;;;;;5049999;28;20338;-71
2024/01/01 02:08:09;;;;;;;0.93;0.93;;;-3.30;99.90;;;;;;5049378;28;20213;-72
2024/01/01 02:10:34;;;;;;;0.73;0.73;;;-3.30;99.90;;;;;;5049443;28;20204;-71
2024/01/01 02:13:00;;;;;;;0.80;0.80;;;-3.30;99.90;;;;;;5066546;28;20204;-71
2024/01/01 02:15:26;;;;;;;0.80;0.80;;;-3.30;99.90;;;;;;5069983;28;20366;-69
2024/01/01 02:17:52;;;;;;;0.90;0.90;;;-3.30;99.90;;;;;;5070769;28;20197;-71
2024/01/01 02:20:18;;;;;;;0.90;0.90;;;-3.40;99.90;;;;;;5069237;28;20220;-71
2024/01/01 02:22:44;;;;;;;0.80;0.80;;;-3.40;99.90;;;;;;5070646;28;20197;-71
2024/01/01 02:25:10;;;;;;;0.63;0.63;;;-3.40;99.90;;;;;;5070373;28;20555;-69
2024/01/01 02:27:37;;;;;;;0.70;0.70;;;-3.40;99.90;;;;;;5070685;28;20196;-69
2024/01/01 02:30:04;;;;;;;0.90;0.90;;;-3.40;99.90;;;;;;5070719;28;20275;-71
2024/01/01 02:32:29;;;;;;;0.80;0.80;;;-3.40;99.90;;;;;;5070395;28;20660;-71
2024/01/01 02:34:55;;;;;;;0.93;0.93;;;-3.40;99.90;;;;;;5070918;28;20195;-71
2024/01/01 02:37:21;;;;;;;0.90;0.90;;;-3.40;99.90;;;;;;5070348;28;20246;-71
2024/01/01 02:39:46;;;;;;;0.80;0.80;;;-3.50;99.90;;;;;;5070473;28;20556;-71
2024/01/01 02:42:12;;;;;;;0.95;0.95;;;-3.40;99.90;;;;;;5069214;28;20663;-71
2024/01/01 02:44:38;;;;;;;0.80;0.80;;;-3.40;99.90;;;;;;5068789;28;20201;-71
2024/01/01 02:47:03;;;;;;;0.80;0.80;;;-3.50;99.90;;;;;;5070515;28;20275;-71
2024/01/01 02:49:29;;;;;;;0.80;0.80;;;-3.40;99.90;;;;;;5070269;28;20228;-71
2024/01/01 02:51:55;;;;;;;0.82;0.82;;;-3.40;99.90;;;;;;5070341;28;20542;-71
2024/01/01 02:54:20;;;;;;;0.80;0.80;;;-3.40;99.90;;;;;;5070119;28;20212;-71
2024/01/01 02:56:47;;;;;;;0.90;0.90;;;-3.40;99.90;;;;;;5070043;28;20193;-71
2024/01/01 02:59:13;;;;;;;0.88;0.88;;;-3.40;99.90;;;;;;5070224;28;20580;-71
2024/01/01 03:01:39;;;;;;;0.82;0.82;;;-3.40;99.90;;;;;;5070052;28;20205;-71
2024/01/01 03:04:04;;;;;;;0.70;0.70;;;-3.40;99.90;;;;;;5070497;28;20184;-71
2024/01/01 03:06:30;;;;;;;1.00;1.00;;;-3.40;99.90;;;;;;5069856;28;20315;-71
2024/01/01 03:08:56;;;;;;;0.80;0.80;;;-3.40;99.90;;;;;;5069857;28;20300;-69
2024/01/01 03:11:21;;;;;;;0.80;0.80;;;-3.40;99.90;;;;;;5069459;28;20215;-71
2024/01/01 03:13:48;;;;;;;0.70;0.70;;;-3.40;99.90;;;;;;5069994;28;20629;-70
2024/01/01 03:16:14;;;;;;;0.70;0.70;;;-3.40;99.90;;;;;;5069689;28;20215;-70
2024/01/01 03:18:40;;;;;;;0.80;0.80;;;-3.40;99.90;;;;;;5068818;28;20198;-70
2024/01/01 03:21:06;;;;;;;0.80;0.80;;;-3.40;99.90;;;;;;5069832;28;20197;-72
2024/01/01 03:23:32;;;;;;;1.10;1.10;;;-3.40;99.90;;;;;;5069621;28;20188;-72
2024/01/01 03:25:57;;;;;;;1.33;1.23;;;-3.40;99.90;;;;;;5069883;28;20254;-72
2024/01/01 03:28:23;;;;;;;0.82;0.82;;;-3.40;99.90;;;;;;5069356;28;20207;-71
2024/01/01 03:30:49;;;;;;;0.70;0.70;;;-3.40;99.90;;;;;;5060159;28;20280;-70
2024/01/01 03:33:14;;;;;;;0.80;0.80;;;-3.40;99.90;;;;;;5049648;28;20198;-72
2024/01/01 03:35:40;;;;;;;0.70;0.70;;;-3.40;99.90;;;;;;5064796;28;20213;-72
2024/01/01 03:38:06;;;;;;;0.70;0.70;;;-3.40;99.90;;;;;;5049333;28;20194;-71
2024/01/01 03:40:31;;;;;;;0.80;0.80;;;-3.40;99.90;;;;;;5049383;28;20248;-72
2024/01/01 03:42:57;;;;;;;0.82;0.82;;;-3.40;99.90;;;;;;5049606;28;20668;-72
2024/01/01 03:45:23;;;;;;;0.77;0.77;;;-3.50;99.90;;;;;;5064412;28;20205;-70
2024/01/01 03:47:48;;;;;;;0.77;0.77;;;-3.50;99.90;;;;;;5049450;28;20205;-72
2024/01/01 03:50:16;;;;;;;21.42;2.97;;;-3.40;99.90;;;;;;5079100;28;20211;-72
2024/01/01 03:52:41;;;;;;;0.80;0.80;;;-3.40;99.90;;;;;;5068886;28;20197;-72
2024/01/01 03:55:07;;;;;;;0.80;0.80;;;-3.40;99.90;;;;;;5069384;28;20197;-72
2024/01/01 03:57:33;;;;;;;0.90;0.90;;;-3.50;99.90;;;;;;5068683;28;20540;-71
2024/01/01 03:59:59;;;;;;;0.90;0.90;;;-3.50;99.90;;;;;;5068889;28;20212;-69
2024/01/01 04:02:25;;;;;;;0.85;0.85;;;-3.50;99.90;;;;;;5067360;28;20228;-71
2024/01/01 04:04:51;;;;;;;0.90;0.90;;;-3.40;99.90;;;;;;5069165;28;20715;-70
2024/01/01 04:07:17;;;;;;;0.90;0.90;;;-3.40;99.90;;;;;;5067833;28;20228;-69
2024/01/01 04:09:43;;;;;;;0.82;0.82;;;-3.40;99.90;;;;;;5063994;28;20206;-71
2024/01/01 04:12:09;;;;;;;0.90;0.90;;;-3.40;99.90;;;;;;5058936;28;20189;-69
2024/01/01 04:14:36;;;;;;;0.70;0.70;;;-3.40;99.90;;;;;;5068512;28;20253;-69
2024/01/01 04:17:03;;;;;;;0.80;0.80;;;-3.40;99.90;;;;;;5068816;28;20212;-69
2024/01/01 04:19:29;;;;;;;0.80;0.80;;;-3.40;99.90;;;;;;5068741;28;20201;-70
2024/01/01 04:21:54;;;;;;;0.77;0.77;;;-3.40;99.90;;;;;;5068766;28;20269;-70
2024/01/01 04:24:20;;;;;;;0.80;0.80;;;-3.40;99.90;;;;;;5068241;28;20204;-70
2024/01/01 04:26:46;;;;;;;0.80;0.80;;;-3.40;99.90;;;;;;5068570;28;20292;-70
2024/01/01 04:29:12;;;;;;;0.90;0.90;;;-3.40;99.90;;;;;;5066849;28;20349;-70
2024/01/01 04:31:38;;;;;;;0.70;0.70;;;-3.40;99.90;;;;;;5068417;28;20220;-70
2024/01/01 04:34:03;;;;;;;0.77;0.77;;;-3.40;99.90;;;;;;5068195;28;20196;-70
2024/01/01 04:36:30;;;;;;;0.80;0.80;;;-3.40;99.90;;;;;;5068520;28;20201;-70
2024/01/01 04:38:56;;;;;;;0.90;0.90;;;-3.40;99.90;;;;;;5068354;28;20201;-71
2024/01/01 04:41:21;;;;;;;0.80;0.80;;;-3.40;99.90;;;;;;5068575;28;20527;-70
2024/01/01 04:43:47;;;;;;;0.80;0.80;;;-3.40;99.90;;;;;;5066940;28;20201;-70
2024/01/01 04:46:13;;;;;;;0.90;0.90;;;-3.40;99.90;;;;;;5067259;28;20233;-71
2024/01/01 04:48:38;;;;;;;1.00;1.00;;;-3.40;99.90;;;;;;5068112;28;20283;-71
2024/01/01 04:51:05;;;;;;;0.90;0.90;;;-3.40;99.90;;;;;;5068151;28;20192;-70
2024/01/01 04:53:30;;;;;;;0.70;0.70;;;-3.50;99.90;;;;;;5068212;28;20200;-70
2024/01/01 04:55:56;;;;;;;1.30;1.20;;;-3.50;99.90;;;;;;5068146;28;20197;-71
2024/01/01 04:58:22;;;;;;;0.88;0.88;;;-3.40;99.90;;;;;;5066830;28;20197;-70
2024/01/01 05:00:47;;;;;;;1.02;1.02;;;-3.40;99.90;;;;;;5068163;28;20209;-71
2024/01/01 05:03:13;;;;;;;0.80;0.80;;;-3.40;99.90;;;;;;5068165;28;20199;-70
2024/01/01 05:05:39;;;;;;;0.90;0.90;;;-3.50;99.90;;;;;;5067845;28;20283;-71
2024/01/01 05:08:04;;;;;;;0.70;0.70;;;-3.50;99.90;;;;;;5068157;28;20196;-70
2024/01/01 05:10:30;;;;;;;0.70;0.70;;;-3.50;99.90;;;;;;5067983;28;20258;-69
2024/01/01 05:12:56;;;;;;;0.82;0.82;;;-3.40;99.90;;;;;;5083771;28;20201;-70
2024/01/01 05:15:21;;;;;;;0.80;0.80;;;-3.40;99.90;;;;;;5067908;28;20207;-70
2024/01/01 05:17:47;;;;;;;0.90;0.90;;;-3.50;99.90;;;;;;5067963;28;20259;-70
2024/01/01 05:20:13;;;;;;;0.85;0.85;;;-3.40;99.90;;;;;;5068056;28;20614;-70
2024/01/01 05:22:40;;;;;;;0.70;0.70;;;-3.40;99.90;;;;;;5068033;28;20232;-70
2024/01/01 05:25:06;;;;;;;0.90;0.90;;;-3.50;99.90;;;;;;5066729;28;20306;-70
2024/01/01 05:27:32;;;;;;;0.82;0.82;;;-3.50;99.90;;;;;;5067830;28;20276;-70
2024/01/01 05:29:58;;;;;;;0.70;0.70;;;-3.50;99.90;;;;;;5068011;28;20276;-70
2024/01/01 05:32:23;;;;;;;3.13;1.88;;;-3.50;99.90;;;;;;5068028;28;20249;-70
2024/01/01 05:34:49;;;;;;;0.80;0.80;;;-3.50;99.90;;;;;;5068402;28;20673;-71
2024/01/01 05:37:15;;;;;;;0.73;0.73;;;-3.50;99.90;;;;;;5068161;28;20203;-71
2024/01/01 05:39:40;;;;;;;0.80;0.80;;;-3.50;99.90;;;;;;5067626;28;20566;-70
2024/01/01 05:42:06;;;;;;;0.88;0.88;;;-3.50;99.90;;;;;;5071170;28;20629;-70
2024/01/01 05:44:31;;;;;;;0.90;0.90;;;-3.50;99.90;;;;;;5071631;28;20197;-70
2024/01/01 05:46:57;;;;;;;0.88;0.88;;;-3.50;99.90;;;;;;5070124;28;20214;-70
2024/01/01 05:49:23;;;;;;;0.80;0.80;;;-3.50;99.90;;;;;;5069872;28;20200;-70
2024/01/01 05:51:49;;;;;;;0.80;0.80;;;-3.50;99.90;;;;;;5071563;28;20205;-70
2024/01/01 05:54:15;;;;;;;0.73;0.73;;;-3.50;99.90;;;;;;5070098;28;20295;-70
2024/01/01 05:56:42;;;;;;;0.85;0.85;;;-3.50;99.90;;;;;;5071061;28;20292;-70
2024/01/01 05:59:07;;;;;;;0.77;0.77;;;-3.50;99.90;;;;;;5071437;28;20737;-70
2024/01/01 06:01:33;;;;;;;0.75;0.75;;;-3.50;99.90;;;;;;5070899;28;20197;-70
2024/01/01 06:03:59;;;;;;;0.80;0.80;;;-3.50;99.90;;;;;;5071634;28;20177;-70
2024/01/01 06:06:25;;;;;;;0.80;0.80;;;-3.50;99.90;;;;;;5069644;28;20305;-70
2024/01/01 06:08:51;;;;;;;0.80;0.80;;;-3.50;99.90;;;;;;5071020;28;20228;-70
2024/01/01 06:11:17;;;;;;;0.75;0.75;;;-3.50;99.90;;;;;;5071180;28;20745;-71
2024/01/01 06:13:44;;;;;;;0.80;0.80;;;-3.50;99.90;;;;;;5071052;28;20292;-70
2024/01/01 06:16:09;;;;;;;1.00;1.00;;;-3.50;99.90;;;;;;5070822;28;20189;-70
2024/01/01 06:18:35;;;;;;;0.90;0.90;;;-3.40;99.90;;;;;;5070918;28;20200;-70
2024/01/01 06:21:01;;;;;;;0.80;0.80;;;-3.40;99.90;;;;;;5070949;28;20287;-70
2024/01/01 06:23:26;;;;;;;0.70;0.70;;;-3.50;99.90;;;;;;5069312;28;20212;-70
2024/01/01 06:25:52;;;;;;;0.90;0.90;;;-3.50;99.90;;;;;;5071015;28;20245;-70
2024/01/01 06:28:19;;;;;;;0.90;0.90;;;-3.50;99.90;;;;;;5070654;28;20196;-70
2024/01/01 06:30:45;;;;;;;1.38;1.27;;;-3.40;99.90;;;;;;5069301;28;20204;-71
2024/01/01 06:33:11;;;;;;;0.88;0.88;;;-3.50;99.90;;;;;;5070809;28;20235;-70
2024/01/01 06:35:37;;;;;;;0.90;0.90;;;-3.50;99.90;;;;;;5070596;28;20254;-71
2024/01/01 06:38:02;;;;;;;0.80;0.80;;;-3.50;99.90;;;;;;5070356;28;20675;-71
2024/01/01 06:40:28;;;;;;;0.80;0.80;;;-3.50;99.90;;;;;;5069201;28;20220;-70
2024/01/01 06:42:54;;;;;;;0.80;0.80;;;-3.40;99.90;;;;;;5070626;28;20185;-70
2024/01/01 06:45:20;;;;;;;0.90;0.90;;;-3.40;99.90;;;;;;5070249;28;20204;-70
2024/01/01 06:47:45;;;;;;;0.80;0.80;;;-3.40;99.90;;;;;;5070489;28;20204;-70
2024/01/01 06:50:11;;;;;;;0.80;0.80;;;-3.50;99.90;;;;;;5069014;28;20286;-70
2024/01/01 06:52:37;;;;;;;0.85;0.85;;;-3.40;99.90;;;;;;5070642;28;20291;-70
2024/01/01 06:55:03;;;;;;;0.80;0.80;;;-3.40;99.90;;;;;;5068716;28;20223;-69
2024/01/01 06:57:29;;;;;;;0.80;0.80;;;-3.40;99.90;;;;;;5069497;28;20733;-69
2024/01/01 06:59:55;;;;;;;0.82;0.82;;;-3.40;99.90;;;;;;5070744;28;20204;-70
2024/01/01 07:02:20;;;;;;;0.80;0.80;;;-3.40;99.90;;;;;;5070005;28;20192;-71
2024/01/01 07:04:46;;;;;;;0.82;0.82;;;-3.40;99.90;;;;;;5070078;28;20189;-70
2024/01/01 07:07:17;;;;;;;0.63;0.63;;;-3.40;99.90;;;;;;5070077;28;20637;-70
2024/01/01 07:09:43;;;;;;;0.90;0.90;;;-3.40;99.90;;;;;;5070141;28;20520;-70
2024/01/01 07:12:20;;;;;;;0.70;0.70;;;-3.40;99.90;;;;;;5070078;28;20197;-70
2024/01/01 07:14:47;;;;;;;0.80;0.80;;;-3.40;99.90;;;;;;5069905;28;20196;-71
2024/01/01 07:17:13;;;;;;;0.88;0.88;;;-3.40;99.90;;;;;;5070018;28;20546;-71
2024/01/01 07:19:39;;;;;;;0.90;0.90;;;-3.40;99.90;;;;;;5069392;28;20219;-70
2024/01/01 07:22:04;;;;;;;0.73;0.73;;;-3.40;99.90;;;;;;5069746;28;20435;-70
2024/01/01 07:24:30;;;;;;;0.88;0.88;;;-3.40;99.90;;;;;;5069679;28;20189;-70
2024/01/01 07:26:57;;;;;;;0.70;0.70;;;-3.40;99.90;;;;;;5069587;28;20667;-70
2024/01/01 07:29:23;;;;;;;1.00;1.00;;;-3.40;99.90;;;;;;5069297;28;20200;-70
2024/01/01 07:31:49;;;;;;;0.98;0.98;;;-3.40;99.90;;;;;;5069723;28;20264;-70
2024/01/01 07:34:18;;;;;;;0.82;0.82;;;-3.40;99.90;;;;;;5069300;28;20413;-71
2024/01/01 07:36:44;;;;;;;0.80;0.80;;;-3.40;99.90;;;;;;5069738;28;20728;-69
2024/01/01 07:39:09;;;;;;;0.80;0.80;;;-3.40;99.90;;;;;;5069395;28;20201;-69
2024/01/01 07:41:35;;;;;;;0.80;0.80;;;-3.40;99.90;;;;;;5069151;28;20200;-70
2024/01/01 07:44:01;;;;;;;0.70;0.70;;;-3.40;99.90;;;;;;5069272;28;20750;-70
2024/01/01 07:46:26;;;;;;;0.80;0.80;;;-3.40;99.90;;;;;;5069177;28;20280;-69
2024/01/01 07:48:52;;;;;;;1.20;1.10;;;-3.40;99.90;;;;;;5069204;28;20594;-70
2024/01/01 07:51:18;;;;;;;0.80;0.80;;;-3.40;99.90;;;;;;5069206;28;20272;-70
2024/01/01 07:53:44;;;;;;;0.88;0.88;;;-3.40;99.90;;;;;;5067404;28;20232;-71
2024/01/01 07:56:09;;;;;;;0.70;0.70;;;-3.40;99.90;;;;;;5067648;28;20679;-72
2024/01/01 07:58:35;;;;;;;1.90;1.23;;;-3.40;99.90;;;;;;5068914;28;20193;-72
2024/01/01 08:01:02;;;;;;;0.80;0.80;;;-3.40;99.90;;;;;;5068833;28;20247;-73
2024/01/01 08:03:28;;;;;;;0.85;0.85;;;-3.40;99.90;;;;;;5068279;28;20203;-73
2024/01/01 08:05:53;;;;;;;0.80;0.80;;;-3.40;99.90;;;;;;5069064;28;20578;-72
2024/01/01 08:08:19;;;;;;;0.80;0.80;;;-3.40;99.90;;;;;;5068663;28;20664;-73
2024/01/01 08:10:45;;;;;;;0.90;0.90;;;-3.40;99.90;;;;;;5068849;28;20203;-73
2024/01/01 08:13:11;;;;;;;1.17;1.13;;;-3.40;99.90;;;;;;5068713;28;20261;-73
2024/01/01 08:15:38;;;;;;;0.73;0.73;;;-3.40;99.90;;;;;;5068696;28;20232;-72
2024/01/01 08:18:04;;;;;;;2.75;2.13;;;-3.40;99.90;;;;;;5068753;28;20200;-71
2024/01/01 08:20:30;;;;;;;0.80;0.80;;;-3.40;99.90;;;;;;5068381;28;20248;-72
2024/01/01 08:22:56;;;;;;;0.90;0.90;;;-3.40;99.90;;;;;;5068419;28;20220;-72
2024/01/01 08:25:21;;;;;;;1.00;1.00;;;-3.40;99.90;;;;;;5068530;28;20623;-72
2024/01/01 08:27:47;;;;;;;0.80;0.80;;;-3.40;99.90;;;;;;5068736;28;20246;-72
2024/01/01 08:30:13;;;;;;;0.82;0.82;;;-3.30;99.90;;;;;;5068317;28;20201;-69
2024/01/01 08:32:39;;;;;;;0.90;0.90;;;-3.30;99.90;;;;;;5068359;28;20676;-69
2024/01/01 08:35:05;;;;;;;0.90;0.90;;;-3.40;99.90;;;;;;5069111;28;20200;-69
2024/01/01 08:37:30;;;;;;;0.88;0.88;;;-3.40;99.90;;;;;;5068528;28;20271;-69
2024/01/01 08:39:56;;;;;;;0.90;0.90;;;-3.30;99.90;;;;;;5068526;28;20222;-68
2024/01/01 08:42:22;;;;;;;0.85;0.85;;;-3.40;99.90;;;;;;5068200;28;20193;-70
2024/01/01 08:44:47;;;;;;;5.57;1.42;;;-3.40;99.90;;;;;;5068538;28;20197;-69
2024/01/01 08:47:15;;;;;;;0.80;0.80;;;-3.40;99.90;;;;;;5068401;28;20216;-69
2024/01/01 08:49:41;;;;;;;0.90;0.90;;;-3.40;99.90;;;;;;5059589;28;20224;-68
2024/01/01 08:52:07;;;;;;;0.90;0.90;;;-3.40;99.90;;;;;;5048205;28;20669;-70
2024/01/01 08:54:33;;;;;;;1.15;1.15;;;-3.30;99.90;;;;;;5048280;28;20197;-69
2024/01/01 08:56:59;;;;;;;0.80;0.80;;;-3.30;99.90;;;;;;5056913;28;20220;-69
2024/01/01 08:59:24;;;;;;;2.63;2.40;;;-3.40;99.90;;;;;;5067844;28;20671;-69
2024/01/01 09:01:50;;;;;;;0.80;0.80;;;-3.30;99.90;;;;;;5068715;28;20193;-71
2024/01/01 09:04:17;;;;;;;0.90;0.90;;;-3.30;99.90;;;;;;5068352;28;20192;-70
2024/01/01 09:06:43;;;;;;;0.90;0.90;;;-3.40;99.90;;;;;;5068150;28;20247;-70
2024/01/01 09:09:10;;;;;;;0.80;0.80;;;-3.40;99.90;;;;;;5068165;28;20668;-70
2024/01/01 09:11:36;;;;;;;0.90;0.90;;;-3.40;99.90;;;;;;5068038;28;20622;-70
2024/01/01 09:14:02;;;;;;;0.90;0.90;;;-3.40;99.90;;;;;;5068341;28;20207;-70
2024/01/01 09:16:31;;;;;;;0.80;0.80;;;-3.40;99.90;;;;;;5070411;28;20205;-70
2024/01/01 09:18:59;;;;;;;0.80;0.80;;;-3.40;99.90;;;;;;5071937;28;20216;-70
2024/01/01 09:21:26;;;;;;;1.10;1.10;;;-3.40;99.90;;;;;;5070269;28;20219;-71
2024/01/01 09:23:57;;;;;;;1.83;1.73;;;-3.30;99.90;;;;;;5071897;28;20189;-71
2024/01/01 09:26:24;;;;;;;0.80;0.80;;;-3.40;99.90;;;;;;5071164;28;20677;-71
2024/01/01 09:28:50;;;;;;;1.10;1.10;;;-3.30;99.90;;;;;;5071997;28;20648;-70
2024/01/01 09:31:15;;;;;;;0.80;0.80;;;-3.30;99.90;;;;;;5071697;28;20207;-71
2024/01/01 09:33:41;;;;;;;0.82;0.82;;;-3.30;99.90;;;;;;5071654;28;20668;-71
2024/01/01 09:36:07;;;;;;;0.70;0.70;;;-3.40;99.90;;;;;;5071752;28;20201;-70
2024/01/01 09:38:33;;;;;;;0.80;0.80;;;-3.30;99.90;;;;;;5071525;28;20196;-70
2024/01/01 09:40:58;;;;;;;0.82;0.82;;;-3.30;99.90;;;;;;5071666;28;20679;-69
2024/01/01 09:43:24;;;;;;;0.80;0.80;;;-3.30;99.90;;;;;;5071453;28;20196;-71
2024/01/01 09:45:50;;;;;;;0.90;0.90;;;-3.30;99.90;;;;;;5071558;28;20212;-70
2024/01/01 09:48:16;;;;;;;0.85;0.85;;;-3.30;99.90;;;;;;5068342;28;20197;-70
2024/01/01 09:50:43;;;;;;;0.90;0.90;;;-3.30;99.90;;;;;;5071522;28;20199;-70
2024/01/01 09:53:09;;;;;;;0.80;0.80;;;-3.30;99.90;;;;;;5071446;28;20215;-69
2024/01/01 09:55:35;;;;;;;0.80;0.80;;;-3.30;99.90;;;;;;5071448;28;20243;-70
2024/01/01 09:58:01;;;;;;;0.90;0.90;;;-3.40;99.90;;;;;;5070825;28;20193;-70
2024/01/01 10:00:28;;;;;;;0.80;0.80;;;-3.30;99.90;;;;;;5069747;28;20718;-71
2024/01/01 10:03:09;;;;;;;0.90;0.90;;;-3.20;99.90;;;;;;5071360;28;20197;-70
2024/01/01 10:05:34;;;;;;;0.90;0.90;;;-3.30;99.90;;;;;;5070880;28;20188;-70
2024/01/01 10:08:14;;;;;;;0.80;0.80;;;-3.30;99.90;;;;;;5071160;28;20208;-70
2024/01/01 10:10:41;;;;;;;0.80;0.80;;;-3.30;99.90;;;;;;5071920;28;20243;-71
2024/01/01 10:13:14;;;;;;;0.90;0.90;;;-3.30;99.90;;;;;;5071160;28;20781;-70
2024/01/01 10:15:42;;;;;;;0.70;0.70;;;-3.30;99.90;;;;;;5070976;28;20235;-70
2024/01/01 10:18:15;;;;;;;1.48;1.38;;;-3.30;99.90;;;;;;5071172;28;20208;-71
2024/01/01 10:20:45;;;;;;;0.82;0.82;;;-3.30;99.90;;;;;;5070708;28;20736;-71
2024/01/01 10:23:19;;;;;;;2.35;1.65;;;-3.30;99.90;;;;;;5070532;28;20300;-71
2024/01/01 10:25:45;;;;;;;0.70;0.70;;;-3.30;99.90;;;;;;5070808;28;20199;-71
2024/01/01 10:28:15;;;;;;;0.80;0.80;;;-3.20;99.90;;;;;;5070380;28;20196;-71
2024/01/01 10:30:46;;;;;;;0.85;0.85;;;-3.30;99.90;;;;;;5069217;28;20724;-71
2024/01/01 10:33:14;;;;;;;1.63;1.52;;;-3.20;99.90;;;;;;5070713;28;20201;-71
2024/01/01 10:35:40;;;;;;;0.80;0.80;;;-3.20;99.90;;;;;;5069335;28;20212;-71
2024/01/01 10:38:06;;;;;;;0.80;0.80;;;-3.20;99.90;;;;;;5070617;28;20286;-70
2024/01/01 10:40:32;;;;;;;0.75;0.75;;;-3.20;99.90;;;;;;5070398;28;20672;-70
2024/01/01 10:42:58;;;;;;;0.75;0.75;;;-3.20;99.90;;;;;;5070642;28;20197;-70
2024/01/01 10:45:24;;;;;;;0.77;0.77;;;-3.20;99.90;;;;;;5070380;28;20582;-70
2024/01/01 10:47:52;;;;;;;0.80;0.80;;;-3.20;99.90;;;;;;5070555;28;20189;-72
2024/01/01 10:50:30;;;;;;;0.80;0.80;;;-3.30;99.90;;;;;;5070303;28;20201;-71
2024/01/01 10:53:07;;;;;;;0.80;0.80;;;-3.20;99.90;;;;;;5070347;28;20232;-71
2024/01/01 10:55:43;;;;;;;0.80;0.80;;;-3.20;99.90;;;;;;5085560;28;20250;-71
2024/01/01 10:58:30;;;;;;;0.70;0.70;;;-3.20;99.90;;;;;;5070334;28;20804;-71
2024/01/01 11:01:15;;;;;;;0.90;0.90;;;-3.30;99.90;;;;;;5070095;28;20686;-71
2024/01/01 11:03:46;;;;;;;0.80;0.80;;;-3.30;99.90;;;;;;5070227;28;20185;-70
2024/01/01 11:06:32;;;;;;;0.80;0.80;;;-3.20;99.90;;;;;;5070231;28;20270;-71
2024/01/01 11:09:20;;;;;;;0.80;0.80;;;-3.20;99.90;;;;;;5069965;28;20220;-70
2024/01/01 11:11:51;;;;;;;0.90;0.90;;;-3.30;99.90;;;;;;5069957;28;20601;-70
2024/01/01 11:14:44;;;;;;;0.80;0.80;;;-3.30;99.90;;;;;;5069777;28;20200;-70
2024/01/01 11:17:11;;;;;;;0.80;0.80;;;-3.30;99.90;;;;;;5069846;28;20242;-70
2024/01/01 11:19:46;;;;;;;0.80;0.80;;;-3.30;99.90;;;;;;5069659;28;20197;-71
2024/01/01 11:22:23;;;;;;;0.73;0.73;;;-3.30;99.90;;;;;;5069986;28;20196;-71
2024/01/01 11:24:50;;;;;;;0.85;0.85;;;-3.30;99.90;;;;;;5069686;28;20196;-71
2024/01/01 11:27:26;;;;;;;0.98;0.98;;;-3.30;99.90;;;;;;5069577;28;20193;-70
2024/01/01 11:29:52;;;;;;;0.90;0.90;;;-3.30;99.90;;;;;;5069878;28;20274;-71
2024/01/01 11:32:19;;;;;;;1.10;1.10;;;-3.30;99.90;;;;;;5069710;28;20201;-70
2024/01/01 11:35:02;;;;;;;0.90;0.90;;;-3.30;99.90;;;;;;5069421;28;20196;-71
2024/01/01 11:37:27;;;;;;;0.80;0.80;;;-3.20;99.90;;;;;;5067170;28;20584;-70
2024/01/01 11:40:03;;;;;;;1.25;1.15;;;-3.20;99.90;;;;;;5063939;28;20209;-70
2024/01/01 11:42:29;;;;;;;0.80;0.80;;;-3.20;99.90;;;;;;5061869;28;20543;-71
2024/01/01 11:45:17;;;;;;;0.80;0.80;;;-3.20;99.90;;;;;;5069465;28;20477;-70
2024/01/01 11:47:43;;;;;;;0.80;0.80;;;-3.20;99.90;;;;;;5069272;28;20196;-70
2024/01/01 11:50:10;;;;;;;0.80;0.80;;;-3.20;99.90;;;;;;5069281;28;20574;-70
2024/01/01 11:52:36;;;;;;;0.80;0.80;;;-3.20;99.90;;;;;;5068939;28;20197;-70
2024/01/01 11:55:03;;;;;;;1.55;1.45;;;-3.20;99.90;;;;;;5069465;28;20242;-70
2024/01/01 11:57:28;;;;;;;0.90;0.90;;;-3.20;99.90;;;;;;5068717;28;20201;-70
2024/01/01 11:59:54;;;;;;;0.80;0.80;;;-3.20;99.90;;;;;;5069154;28;20201;-70
2024/01/01 12:02:22;;;;;;;0.80;0.80;;;-3.20;99.90;;;;;;5068816;28;20199;-70
2024/01/01 12:04:52;;;;;;;0.70;0.70;;;-3.20;99.90;;;;;;5069660;28;20710;-70
2024/01/01 12:07:32;;;;;;;0.73;0.73;;;-3.20;99.90;;;;;;5068785;28;20256;-70
2024/01/01 12:10:09;;;;;;;0.70;0.70;;;-3.30;99.90;;;;;;5068746;28;20217;-71
2024/01/01 12:12:40;;;;;;;3.60;2.25;;;-3.30;99.90;;;;;;5068793;28;20199;-70
2024/01/01 12:15:29;;;;;;;0.80;0.80;;;-3.40;99.90;;;;;;5068728;28;20199;-70
2024/01/01 12:17:55;;;;;;;0.80;0.80;;;-3.30;99.90;;;;;;5068724;28;20652;-70
2024/01/01 12:20:23;;;;;;;0.90;0.90;;;-3.30;99.90;;;;;;5068651;28;20210;-70
2024/01/01 12:22:48;;;;;;;0.80;0.80;;;-3.30;99.90;;;;;;5068663;28;20699;-71
2024/01/01 12:25:16;;;;;;;0.80;0.80;;;-3.30;99.90;;;;;;5068724;28;20197;-71
2024/01/01 12:27:42;;;;;;;1.30;1.23;;;-3.40;99.90;;;;;;5067170;28;20201;-71
2024/01/01 12:30:08;;;;;;;0.77;0.77;;;-3.40;99.90;;;;;;5068685;28;20664;-71
2024/01/01 12:32:34;;;;;;;0.80;0.80;;;-3.40;99.90;;;;;;5068803;28;20279;-70
2024/01/01 12:35:00;;;;;;;0.80;0.80;;;-3.30;99.90;;;;;;5067013;28;20284;-70
2024/01/01 12:37:27;;;;;;;0.70;0.70;;;-3.30;99.90;;;;;;5068584;28;20251;-71
2024/01/01 12:39:52;;;;;;;0.80;0.80;;;-3.30;99.90;;;;;;5067316;28;20573;-71
2024/01/01 12:42:18;;;;;;;0.85;0.85;;;-3.50;99.90;;;;;;5056736;28;20198;-71
2024/01/01 12:44:44;;;;;;;0.90;0.90;;;-3.40;99.90;;;;;;5048348;28;20228;-71
2024/01/01 12:47:10;;;;;;;0.80;0.80;;;-3.40;99.90;;;;;;5049100;28;20872;-70